Hlavní strana
METAR-TAF:

METAR-TAF

Letiště :

Marianna Municipal Airport

Marianna, Florida, Spojené státy americké

zeměpisná šířka: 30-50-12N, zeměpisná délka: 085-11-01W, výška: 34 m

Aktuální stav počasí

Zpráva byla vytvořena před 1 hodinou a 9 minutami, v 16:53 UTC
Severoseverozápadní vítr 13 kt
Teplota 9°C
Vlhkost vzduchu 93%
Tlak 1019 hPa
Viditelnost: 16.1 km
Zataženo ve výšce 1000 ft

METAR: KMAI 151653Z AUTO 33013KT 10SM OVC010 09/08 A3008 RMK AO2 SLP185 T00940078

Čas: 12:02 (18:02 UTC)


TAF: chybějící

Stav a předpovědi počasí z více než 4 000 letišť (zprávy METAR a TAF).

Červené a žluté tečky na mapě představují dostupné meteorologické stanice.

Když kurzor umístíte na tečku, zobrazí se název stanice.

Pak kliknutím zobrazíte stav a předpověď počasí.

Chcete-li změnit mapu, kliknutím na zelené tlačítko se znaménkem +mapu přiblížíte, kliknutím na zelené tlačítko se znaménkem – mapu oddálíte a kliknutím na zelené šipky přejdete na sousední mapy.


METAR-TAF: